Time,TemperatureF,DewpointF,PressureIn,WindDirection,WindDirectionDegrees,WindSpeedMPH,WindSpeedGustMPH,Humidity,HourlyPrecipIn,Conditions,Clouds,dailyrainin,SoftwareType,DateUTC
2013-07-25 00:01:00,82.0,75.9,29.85,SW,225,1.0,5.0,82,0.00,,,0.00,meteohub,2013-07-25 04:01:00,
2013-07-25 00:02:00,82.0,75.9,29.85,SW,225,1.0,5.0,82,0.00,,,0.00,meteohub,2013-07-25 04:02:00,
2013-07-25 00:03:00,82.0,75.9,29.86,SW,225,2.0,5.0,82,0.00,,,0.00,meteohub,2013-07-25 04:03:00,
2013-07-25 00:04:00,82.0,76.3,29.85,SW,225,1.0,5.0,83,0.00,,,0.00,meteohub,2013-07-25 04:04:00,
2013-07-25 00:06:00,81.9,76.1,29.86,SW,225,3.0,4.0,83,0.00,,,0.00,meteohub,2013-07-25 04:06:00,
2013-07-25 00:11:00,81.7,75.9,29.86,South,180,2.0,3.0,83,0.00,,,0.00,meteohub,2013-07-25 04:11:00,
2013-07-25 00:16:00,81.3,75.7,29.86,West,270,2.0,3.0,83,0.00,,,0.00,meteohub,2013-07-25 04:16:00,
2013-07-25 00:22:00,81.5,75.9,29.86,West,270,1.0,3.0,83,0.00,,,0.00,meteohub,2013-07-25 04:22:00,
2013-07-25 00:27:00,81.3,75.7,29.86,SW,225,3.0,4.0,83,0.00,,,0.00,meteohub,2013-07-25 04:27:00,
2013-07-25 00:32:00,81.3,75.7,29.86,SW,225,1.0,4.0,83,0.00,,,0.00,meteohub,2013-07-25 04:32:00,
2013-07-25 00:37:00,81.1,75.9,29.86,SW,225,1.0,4.0,84,0.00,,,0.00,meteohub,2013-07-25 04:37:00,
2013-07-25 00:42:00,81.0,76.1,29.85,SW,225,2.0,4.0,85,0.00,,,0.00,meteohub,2013-07-25 04:42:00,
2013-07-25 00:47:00,80.8,75.9,29.85,SW,225,4.0,4.0,85,0.00,,,0.00,meteohub,2013-07-25 04:47:00,
2013-07-25 00:52:00,80.6,75.7,29.85,West,270,3.0,4.0,85,0.00,,,0.00,meteohub,2013-07-25 04:52:00,
2013-07-25 00:58:00,80.6,75.7,29.85,SW,225,2.0,4.0,85,0.00,,,0.00,meteohub,2013-07-25 04:58:00,
2013-07-25 01:03:00,80.6,75.7,29.85,SW,225,2.0,4.0,85,0.00,,,0.00,meteohub,2013-07-25 05:03:00,
2013-07-25 01:08:00,80.4,75.6,29.85,SW,225,1.0,4.0,85,0.00,,,0.00,meteohub,2013-07-25 05:08:00,
2013-07-25 01:13:00,80.2,75.7,29.85,SW,225,1.0,4.0,86,0.00,,,0.00,meteohub,2013-07-25 05:13:00,
2013-07-25 01:18:00,80.1,75.9,29.84,West,270,4.0,4.0,87,0.00,,,0.00,meteohub,2013-07-25 05:18:00,
2013-07-25 01:23:00,80.2,76.1,29.84,SW,225,2.0,4.0,87,0.00,,,0.00,meteohub,2013-07-25 05:23:00,
2013-07-25 01:28:00,80.1,75.9,29.84,SW,225,1.0,4.0,87,0.00,,,0.00,meteohub,2013-07-25 05:28:00,
2013-07-25 01:33:00,79.7,75.7,29.84,SW,225,2.0,4.0,88,0.00,,,0.00,meteohub,2013-07-25 05:33:00,
2013-07-25 01:39:00,79.7,75.7,29.84,SW,225,2.0,2.0,88,0.00,,,0.00,meteohub,2013-07-25 05:39:00,
2013-07-25 01:44:00,79.5,75.9,29.84,SW,225,2.0,2.0,89,0.00,,,0.00,meteohub,2013-07-25 05:44:00,
2013-07-25 01:49:00,79.5,76.3,29.84,SW,225,1.0,2.0,90,0.00,,,0.00,meteohub,2013-07-25 05:49:00,
2013-07-25 01:54:00,79.3,76.1,29.84,SW,225,1.0,4.0,90,0.00,,,0.00,meteohub,2013-07-25 05:54:00,
2013-07-25 01:59:00,79.2,75.6,29.83,SW,225,0.0,4.0,89,0.00,,,0.00,meteohub,2013-07-25 05:59:00,
2013-07-25 02:04:00,78.8,75.6,29.83,SW,225,1.0,4.0,90,0.00,,,0.00,meteohub,2013-07-25 06:04:00,
2013-07-25 02:09:00,78.8,75.9,29.83,SW,225,2.0,3.0,91,0.00,,,0.00,meteohub,2013-07-25 06:09:00,
2013-07-25 02:14:00,78.6,75.7,29.83,SW,225,0.0,2.0,91,0.00,,,0.00,meteohub,2013-07-25 06:14:00,
2013-07-25 02:20:00,78.6,76.1,29.83,West,270,1.0,2.0,92,0.00,,,0.00,meteohub,2013-07-25 06:20:00,
2013-07-25 02:25:00,78.4,75.9,29.83,West,270,0.0,2.0,92,0.00,,,0.00,meteohub,2013-07-25 06:25:00,
2013-07-25 02:30:00,78.1,75.9,29.82,SW,225,2.0,2.0,93,0.00,,,0.00,meteohub,2013-07-25 06:30:00,
2013-07-25 02:35:00,78.1,76.3,29.82,West,270,2.0,2.0,94,0.00,,,0.00,meteohub,2013-07-25 06:35:00,
2013-07-25 02:40:00,78.1,76.3,29.82,SW,225,0.0,2.0,94,0.00,,,0.00,meteohub,2013-07-25 06:40:00,
2013-07-25 02:45:00,77.9,76.3,29.82,SW,225,0.0,2.0,95,0.00,,,0.00,meteohub,2013-07-25 06:45:00,
2013-07-25 02:50:00,77.7,76.1,29.82,SW,225,0.0,2.0,95,0.00,,,0.00,meteohub,2013-07-25 06:50:00,
2013-07-25 02:56:00,77.5,76.3,29.82,West,270,1.0,1.0,96,0.00,,,0.00,meteohub,2013-07-25 06:56:00,
2013-07-25 03:01:00,77.4,76.1,29.82,West,270,0.0,1.0,96,0.00,,,0.00,meteohub,2013-07-25 07:01:00,
2013-07-25 03:06:00,77.2,75.9,29.82,SW,225,0.0,1.0,96,0.00,,,0.00,meteohub,2013-07-25 07:06:00,
2013-07-25 03:12:00,76.8,75.9,29.82,South,180,0.0,1.0,97,0.00,,,0.00,meteohub,2013-07-25 07:12:00,
2013-07-25 03:17:00,76.5,75.9,29.82,South,180,0.0,0.0,98,0.00,,,0.00,meteohub,2013-07-25 07:17:00,
2013-07-25 03:22:00,76.3,75.9,29.81,South,180,0.0,1.0,99,0.00,,,0.00,meteohub,2013-07-25 07:22:00,
2013-07-25 03:27:00,76.5,76.1,29.82,South,180,1.0,1.0,99,0.00,,,0.00,meteohub,2013-07-25 07:27:00,
2013-07-25 03:32:00,76.6,76.3,29.82,SW,225,1.0,2.0,99,0.00,,,0.00,meteohub,2013-07-25 07:32:00,
2013-07-25 03:37:00,76.8,76.5,29.82,SW,225,0.0,2.0,99,0.00,,,0.00,meteohub,2013-07-25 07:37:00,
2013-07-25 03:42:00,76.6,76.3,29.81,SW,225,0.0,2.0,99,0.00,,,0.00,meteohub,2013-07-25 07:42:00,
2013-07-25 03:47:00,76.5,76.1,29.81,SW,225,0.0,1.0,99,0.00,,,0.00,meteohub,2013-07-25 07:47:00,
2013-07-25 03:52:00,76.3,75.9,29.81,South,180,0.0,1.0,99,0.00,,,0.00,meteohub,2013-07-25 07:52:00,
2013-07-25 03:57:00,76.3,75.9,29.81,SW,225,0.0,0.0,99,0.00,,,0.00,meteohub,2013-07-25 07:57:00,
2013-07-25 04:02:00,76.1,75.7,29.81,SW,225,0.0,0.0,99,0.00,,,0.00,meteohub,2013-07-25 08:02:00,
2013-07-25 04:07:00,76.1,75.7,29.81,SW,225,0.0,0.0,99,0.00,,,0.00,meteohub,2013-07-25 08:07:00,
2013-07-25 04:12:00,76.1,75.7,29.81,South,180,0.0,0.0,99,0.00,,,0.00,meteohub,2013-07-25 08:12:00,
2013-07-25 04:17:00,76.1,75.7,29.81,South,180,0.0,0.0,99,0.00,,,0.00,meteohub,2013-07-25 08:17:00,
2013-07-25 04:22:00,75.9,75.6,29.81,SW,225,0.0,0.0,99,0.00,,,0.00,meteohub,2013-07-25 08:22:00,
2013-07-25 04:27:00,75.9,75.6,29.80,SW,225,0.0,0.0,99,0.00,,,0.00,meteohub,2013-07-25 08:27:00,
2013-07-25 04:32:00,76.1,75.7,29.80,SW,225,0.0,1.0,99,0.00,,,0.00,meteohub,2013-07-25 08:32:00,
2013-07-25 04:37:00,76.1,75.7,29.81,SW,225,0.0,1.0,99,0.00,,,0.00,meteohub,2013-07-25 08:37:00,
2013-07-25 04:42:00,76.1,75.7,29.81,SW,225,0.0,1.0,99,0.00,,,0.00,meteohub,2013-07-25 08:42:00,
2013-07-25 04:47:00,75.7,75.4,29.81,SW,225,0.0,0.0,99,0.00,,,0.00,meteohub,2013-07-25 08:47:00,
2013-07-25 04:52:00,75.9,75.6,29.81,SW,225,0.0,1.0,99,0.00,,,0.00,meteohub,2013-07-25 08:52:00,
2013-07-25 04:57:00,75.9,75.6,29.81,SW,225,0.0,1.0,99,0.00,,,0.00,meteohub,2013-07-25 08:57:00,
2013-07-25 05:02:00,75.7,75.4,29.81,South,180,0.0,1.0,99,0.00,,,0.00,meteohub,2013-07-25 09:02:00,
2013-07-25 05:07:00,75.9,75.6,29.81,SW,225,1.0,1.0,99,0.00,,,0.00,meteohub,2013-07-25 09:07:00,
2013-07-25 05:12:00,76.1,75.7,29.81,South,180,1.0,1.0,99,0.00,,,0.00,meteohub,2013-07-25 09:12:00,
2013-07-25 05:17:00,76.1,75.7,29.81,South,180,0.0,1.0,99,0.00,,,0.00,meteohub,2013-07-25 09:17:00,
2013-07-25 05:22:00,76.1,75.7,29.81,SW,225,0.0,1.0,99,0.00,,,0.00,meteohub,2013-07-25 09:22:00,
2013-07-25 05:27:00,76.1,75.7,29.81,SW,225,0.0,1.0,99,0.00,,,0.00,meteohub,2013-07-25 09:27:00,
2013-07-25 05:32:00,76.1,75.7,29.81,SW,225,1.0,1.0,99,0.00,,,0.00,meteohub,2013-07-25 09:32:00,
2013-07-25 05:37:00,75.9,75.6,29.81,SW,225,0.0,1.0,99,0.00,,,0.00,meteohub,2013-07-25 09:37:00,
2013-07-25 05:42:00,75.9,75.6,29.81,South,180,0.0,1.0,99,0.00,,,0.00,meteohub,2013-07-25 09:42:00,
2013-07-25 05:47:00,75.9,75.6,29.82,South,180,0.0,1.0,99,0.00,,,0.00,meteohub,2013-07-25 09:47:00,
2013-07-25 05:52:00,75.7,75.4,29.82,South,180,0.0,0.0,99,0.00,,,0.00,meteohub,2013-07-25 09:52:00,
2013-07-25 05:57:00,75.6,75.2,29.82,South,180,0.0,0.0,99,0.00,,,0.00,meteohub,2013-07-25 09:57:00,
2013-07-25 06:02:00,75.4,75.0,29.82,South,180,0.0,0.0,99,0.00,,,0.00,meteohub,2013-07-25 10:02:00,
2013-07-25 06:07:00,75.6,75.2,29.82,South,180,0.0,0.0,99,0.00,,,0.00,meteohub,2013-07-25 10:07:00,
2013-07-25 06:12:00,75.6,75.2,29.82,South,180,0.0,0.0,99,0.00,,,0.00,meteohub,2013-07-25 10:12:00,
2013-07-25 06:17:00,75.6,75.2,29.82,SW,225,0.0,0.0,99,0.00,,,0.00,meteohub,2013-07-25 10:17:00,
2013-07-25 06:22:00,75.7,75.4,29.83,South,180,0.0,0.0,99,0.00,,,0.00,meteohub,2013-07-25 10:22:00,
2013-07-25 06:27:00,75.7,75.4,29.83,SSW,203,0.0,0.0,99,0.00,,,0.00,meteohub,2013-07-25 10:27:00,
2013-07-25 06:32:00,75.9,75.6,29.83,SW,225,0.0,0.0,99,0.00,,,0.00,meteohub,2013-07-25 10:32:00,
2013-07-25 06:37:00,76.1,75.7,29.83,SW,225,0.0,0.0,99,0.00,,,0.00,meteohub,2013-07-25 10:37:00,
2013-07-25 06:42:00,76.1,75.7,29.83,SW,225,0.0,0.0,99,0.00,,,0.00,meteohub,2013-07-25 10:42:00,
2013-07-25 06:47:00,76.3,75.9,29.83,West,270,0.0,0.0,99,0.00,,,0.00,meteohub,2013-07-25 10:47:00,
2013-07-25 06:52:00,76.3,75.9,29.83,South,180,0.0,0.0,99,0.00,,,0.00,meteohub,2013-07-25 10:52:00,
2013-07-25 06:57:00,76.3,75.9,29.84,SW,225,0.0,0.0,99,0.00,,,0.00,meteohub,2013-07-25 10:57:00,
2013-07-25 07:03:00,76.3,75.9,29.84,SW,225,0.0,0.0,99,0.00,,,0.00,meteohub,2013-07-25 11:03:00,
2013-07-25 07:08:00,76.6,76.3,29.84,SW,225,0.0,0.0,99,0.00,,,0.00,meteohub,2013-07-25 11:08:00,
2013-07-25 07:13:00,77.0,76.6,29.84,South,180,0.0,0.0,99,0.00,,,0.00,meteohub,2013-07-25 11:13:00,
2013-07-25 07:18:00,77.4,77.0,29.84,South,180,0.0,0.0,99,0.00,,,0.00,meteohub,2013-07-25 11:18:00,
2013-07-25 07:23:00,77.9,77.5,29.84,South,180,0.0,0.0,99,0.00,,,0.00,meteohub,2013-07-25 11:23:00,
2013-07-25 07:28:00,78.4,78.1,29.85,West,270,1.0,1.0,99,0.00,,,0.00,meteohub,2013-07-25 11:28:00,
2013-07-25 07:33:00,79.2,78.8,29.85,South,180,1.0,1.0,99,0.00,,,0.00,meteohub,2013-07-25 11:33:00,
2013-07-25 07:38:00,80.2,79.9,29.85,South,180,3.0,3.0,99,0.00,,,0.00,meteohub,2013-07-25 11:38:00,
2013-07-25 07:43:00,81.5,81.0,29.84,South,180,2.0,3.0,98,0.00,,,0.00,meteohub,2013-07-25 11:43:00,
2013-07-25 07:49:00,82.8,81.1,29.85,SW,225,2.0,3.0,95,0.00,,,0.00,meteohub,2013-07-25 11:49:00,
2013-07-25 07:54:00,83.5,81.3,29.85,SW,225,1.0,3.0,93,0.00,,,0.00,meteohub,2013-07-25 11:54:00,
2013-07-25 07:59:00,84.0,81.1,29.86,South,180,2.0,2.0,91,0.00,,,0.00,meteohub,2013-07-25 11:59:00,
2013-07-25 08:04:00,84.7,81.1,29.85,SW,225,2.0,4.0,89,0.00,,,0.00,meteohub,2013-07-25 12:04:00,
2013-07-25 08:09:00,85.3,80.6,29.85,SW,225,2.0,4.0,86,0.00,,,0.00,meteohub,2013-07-25 12:09:00,
2013-07-25 08:14:00,85.5,80.4,29.86,South,180,1.0,4.0,85,0.00,,,0.00,meteohub,2013-07-25 12:14:00,
2013-07-25 08:19:00,86.2,80.8,29.86,SW,225,4.0,6.0,84,0.00,,,0.00,meteohub,2013-07-25 12:19:00,
2013-07-25 08:24:00,86.2,80.8,29.86,WNW,293,3.0,6.0,84,0.00,,,0.00,meteohub,2013-07-25 12:24:00,
2013-07-25 08:30:00,86.2,80.4,29.86,West,270,5.0,6.0,83,0.00,,,0.00,meteohub,2013-07-25 12:30:00,
2013-07-25 08:35:00,86.5,80.1,29.86,SW,225,4.0,4.0,81,0.00,,,0.00,meteohub,2013-07-25 12:35:00,
2013-07-25 08:40:00,86.5,80.4,29.87,SW,225,2.0,5.0,82,0.00,,,0.00,meteohub,2013-07-25 12:40:00,
2013-07-25 08:45:00,86.7,80.2,29.87,NW,315,6.0,6.0,81,0.00,,,0.00,meteohub,2013-07-25 12:45:00,
2013-07-25 08:50:00,86.5,80.1,29.86,West,270,5.0,6.0,81,0.00,,,0.00,meteohub,2013-07-25 12:50:00,
2013-07-25 08:55:00,87.3,80.2,29.86,South,180,5.0,6.0,80,0.00,,,0.00,meteohub,2013-07-25 12:55:00,
2013-07-25 09:01:00,87.3,79.5,29.86,West,270,3.0,6.0,78,0.00,,,0.00,meteohub,2013-07-25 13:01:00,
2013-07-25 09:06:00,87.4,79.7,29.86,SW,225,5.0,7.0,78,0.00,,,0.00,meteohub,2013-07-25 13:06:00,
2013-07-25 09:11:00,87.3,79.5,29.86,SW,225,3.0,7.0,78,0.00,,,0.00,meteohub,2013-07-25 13:11:00,
2013-07-25 09:16:00,87.4,79.3,29.86,North,0,4.0,7.0,77,0.00,,,0.00,meteohub,2013-07-25 13:16:00,
2013-07-25 09:21:00,88.2,79.7,29.86,SW,225,7.0,7.0,76,0.00,,,0.00,meteohub,2013-07-25 13:21:00,
2013-07-25 09:26:00,88.7,80.2,29.87,SW,225,2.0,7.0,76,0.00,,,0.00,meteohub,2013-07-25 13:26:00,
2013-07-25 09:32:00,88.2,78.8,29.87,South,180,7.0,7.0,74,0.00,,,0.00,meteohub,2013-07-25 13:32:00,
2013-07-25 09:37:00,87.6,78.6,29.86,SW,225,5.0,8.0,75,0.00,,,0.00,meteohub,2013-07-25 13:37:00,
2013-07-25 09:42:00,87.8,78.4,29.87,SW,225,8.0,8.0,74,0.00,,,0.00,meteohub,2013-07-25 13:42:00,
2013-07-25 09:47:00,88.2,77.9,29.87,West,270,3.0,8.0,72,0.00,,,0.00,meteohub,2013-07-25 13:47:00,
2013-07-25 09:52:00,88.7,78.4,29.87,SW,225,4.0,8.0,72,0.00,,,0.00,meteohub,2013-07-25 13:52:00,
2013-07-25 09:57:00,89.4,77.9,29.88,West,270,5.0,8.0,69,0.00,,,0.00,meteohub,2013-07-25 13:57:00,
2013-07-25 10:02:00,89.4,77.9,29.87,SW,225,4.0,7.0,69,0.00,,,0.00,meteohub,2013-07-25 14:02:00,
2013-07-25 10:07:00,89.4,77.5,29.88,SW,225,5.0,7.0,68,0.00,,,0.00,meteohub,2013-07-25 14:07:00,
2013-07-25 10:12:00,89.4,77.5,29.88,SW,225,7.0,8.0,68,0.00,,,0.00,meteohub,2013-07-25 14:12:00,
2013-07-25 10:17:00,90.0,77.0,29.88,SW,225,7.0,8.0,66,0.00,,,0.00,meteohub,2013-07-25 14:17:00,
2013-07-25 10:22:00,89.6,76.6,29.88,SW,225,4.0,8.0,66,0.00,,,0.00,meteohub,2013-07-25 14:22:00,
2013-07-25 10:27:00,89.6,76.6,29.88,SW,225,4.0,9.0,66,0.00,,,0.00,meteohub,2013-07-25 14:27:00,
2013-07-25 10:32:00,89.2,76.8,29.89,WSW,248,4.0,9.0,67,0.00,,,0.00,meteohub,2013-07-25 14:32:00,
2013-07-25 10:37:00,88.7,76.8,29.89,West,270,4.0,9.0,68,0.00,,,0.00,meteohub,2013-07-25 14:37:00,
2013-07-25 10:43:00,88.7,75.4,29.89,NW,315,5.0,10.0,65,0.00,,,0.00,meteohub,2013-07-25 14:43:00,
2013-07-25 10:48:00,89.8,76.8,29.88,SW,225,8.0,10.0,66,0.00,,,0.00,meteohub,2013-07-25 14:48:00,
2013-07-25 10:53:00,90.0,76.1,29.89,SW,225,2.0,10.0,64,0.00,,,0.00,meteohub,2013-07-25 14:53:00,
2013-07-25 10:58:00,89.2,76.5,29.89,SW,225,2.0,8.0,66,0.00,,,0.00,meteohub,2013-07-25 14:58:00,
2013-07-25 11:03:00,89.8,77.4,29.90,SW,225,2.0,8.0,67,0.00,,,0.00,meteohub,2013-07-25 15:03:00,
2013-07-25 11:08:00,89.4,76.6,29.89,SW,225,6.0,7.0,66,0.00,,,0.00,meteohub,2013-07-25 15:08:00,
2013-07-25 11:13:00,89.8,76.8,29.90,NW,315,5.0,10.0,66,0.00,,,0.00,meteohub,2013-07-25 15:13:00,
2013-07-25 11:19:00,89.6,75.7,29.90,SW,225,7.0,10.0,64,0.00,,,0.00,meteohub,2013-07-25 15:19:00,
2013-07-25 11:24:00,89.2,75.9,29.91,West,270,2.0,8.0,65,0.00,,,0.00,meteohub,2013-07-25 15:24:00,
2013-07-25 11:29:00,90.7,74.3,29.90,NW,315,8.0,8.0,59,0.00,,,0.00,meteohub,2013-07-25 15:29:00,
2013-07-25 11:34:00,91.9,75.0,29.91,NW,315,3.0,8.0,58,0.00,,,0.00,meteohub,2013-07-25 15:34:00,
2013-07-25 11:39:00,93.4,75.9,29.90,NW,315,8.0,8.0,57,0.00,,,0.00,meteohub,2013-07-25 15:39:00,
2013-07-25 11:44:00,92.1,75.2,29.90,West,270,6.0,9.0,58,0.00,,,0.00,meteohub,2013-07-25 15:44:00,
2013-07-25 11:49:00,91.4,75.0,29.91,NW,315,4.0,9.0,59,0.00,,,0.00,meteohub,2013-07-25 15:49:00,
2013-07-25 11:54:00,92.3,75.4,29.90,NW,315,4.0,11.0,58,0.00,,,0.00,meteohub,2013-07-25 15:54:00,
2013-07-25 12:00:00,92.5,75.6,29.90,West,270,7.0,11.0,58,0.00,,,0.00,meteohub,2013-07-25 16:00:00,
2013-07-25 12:05:00,92.7,76.3,29.91,North,0,2.0,8.0,59,0.00,,,0.00,meteohub,2013-07-25 16:05:00,
2013-07-25 12:10:00,92.7,75.7,29.91,North,0,7.0,8.0,58,0.00,,,0.00,meteohub,2013-07-25 16:10:00,
2013-07-25 12:15:00,92.7,74.7,29.91,NW,315,4.0,8.0,56,0.00,,,0.00,meteohub,2013-07-25 16:15:00,
2013-07-25 12:20:00,93.0,75.6,29.91,West,270,5.0,11.0,57,0.00,,,0.00,meteohub,2013-07-25 16:20:00,
2013-07-25 12:25:00,93.9,75.2,29.91,SW,225,6.0,11.0,55,0.00,,,0.00,meteohub,2013-07-25 16:25:00,
2013-07-25 12:31:00,95.0,75.2,29.90,NW,315,6.0,11.0,53,0.00,,,0.00,meteohub,2013-07-25 16:31:00,
2013-07-25 12:36:00,93.0,75.0,29.90,SW,225,5.0,8.0,56,0.00,,,0.00,meteohub,2013-07-25 16:36:00,
2013-07-25 12:41:00,93.0,75.6,29.90,NW,315,8.0,8.0,57,0.00,,,0.00,meteohub,2013-07-25 16:41:00,
2013-07-25 12:47:00,92.1,74.7,29.90,West,270,4.0,8.0,57,0.00,,,0.00,meteohub,2013-07-25 16:47:00,
2013-07-25 12:52:00,93.4,75.4,29.89,North,0,2.0,8.0,56,0.00,,,0.00,meteohub,2013-07-25 16:52:00,
2013-07-25 12:57:00,93.4,74.8,29.89,West,270,3.0,8.0,55,0.00,,,0.00,meteohub,2013-07-25 16:57:00,
2013-07-25 13:02:00,92.7,75.2,29.89,South,180,5.0,6.0,57,0.00,,,0.00,meteohub,2013-07-25 17:02:00,
2013-07-25 13:07:00,92.8,75.4,29.89,West,270,8.0,10.0,57,0.00,,,0.00,meteohub,2013-07-25 17:07:00,
2013-07-25 13:12:00,93.4,75.9,29.88,SW,225,4.0,10.0,57,0.00,,,0.00,meteohub,2013-07-25 17:12:00,
2013-07-25 13:17:00,94.5,74.7,29.89,West,270,4.0,11.0,53,0.00,,,0.00,meteohub,2013-07-25 17:17:00,
2013-07-25 13:22:00,94.1,75.4,29.88,West,270,3.0,11.0,55,0.00,,,0.00,meteohub,2013-07-25 17:22:00,
2013-07-25 13:27:00,95.0,75.2,29.88,West,270,6.0,11.0,53,0.00,,,0.00,meteohub,2013-07-25 17:27:00,
2013-07-25 13:32:00,94.3,76.1,29.88,SW,225,2.0,8.0,56,0.00,,,0.00,meteohub,2013-07-25 17:32:00,
2013-07-25 13:37:00,93.7,75.7,29.88,SE,135,4.0,8.0,56,0.00,,,0.00,meteohub,2013-07-25 17:37:00,
2013-07-25 13:42:00,94.3,75.6,29.88,West,270,9.0,10.0,55,0.00,,,0.00,meteohub,2013-07-25 17:42:00,
2013-07-25 13:47:00,94.1,75.4,29.88,South,180,8.0,10.0,55,0.00,,,0.00,meteohub,2013-07-25 17:47:00,
2013-07-25 13:52:00,93.6,75.0,29.88,West,270,8.0,10.0,55,0.00,,,0.00,meteohub,2013-07-25 17:52:00,
2013-07-25 13:57:00,93.7,75.7,29.88,West,270,4.0,10.0,56,0.00,,,0.00,meteohub,2013-07-25 17:57:00,
2013-07-25 14:02:00,95.0,75.7,29.88,South,180,9.0,10.0,54,0.00,,,0.00,meteohub,2013-07-25 18:02:00,
2013-07-25 14:07:00,94.6,75.9,29.88,SW,225,9.0,10.0,55,0.00,,,0.00,meteohub,2013-07-25 18:07:00,
2013-07-25 14:12:00,94.3,75.6,29.88,North,0,3.0,9.0,55,0.00,,,0.00,meteohub,2013-07-25 18:12:00,
2013-07-25 14:17:00,95.5,73.9,29.88,West,270,5.0,9.0,50,0.00,,,0.00,meteohub,2013-07-25 18:17:00,
2013-07-25 14:22:00,95.2,74.8,29.87,SW,225,4.0,9.0,52,0.00,,,0.00,meteohub,2013-07-25 18:22:00,
2013-07-25 14:27:00,94.1,74.8,29.87,SSW,203,5.0,7.0,54,0.00,,,0.00,meteohub,2013-07-25 18:27:00,
2013-07-25 14:33:00,94.3,75.0,29.87,West,270,4.0,13.0,54,0.00,,,0.00,meteohub,2013-07-25 18:33:00,
2013-07-25 14:38:00,95.4,75.0,29.87,South,180,6.0,13.0,52,0.00,,,0.00,meteohub,2013-07-25 18:38:00,
2013-07-25 14:43:00,95.9,74.3,29.87,West,270,5.0,13.0,50,0.00,,,0.00,meteohub,2013-07-25 18:43:00,
2013-07-25 14:48:00,95.5,75.7,29.88,NW,315,8.0,10.0,53,0.00,,,0.00,meteohub,2013-07-25 18:48:00,
2013-07-25 14:53:00,95.7,75.2,29.87,South,180,3.0,9.0,52,0.00,,,0.00,meteohub,2013-07-25 18:53:00,
2013-07-25 14:59:00,95.4,75.6,29.87,SW,225,4.0,9.0,53,0.00,,,0.00,meteohub,2013-07-25 18:59:00,
2013-07-25 15:04:00,95.4,75.0,29.87,NW,315,6.0,9.0,52,0.00,,,0.00,meteohub,2013-07-25 19:04:00,
2013-07-25 15:09:00,94.8,75.0,29.87,South,180,4.0,9.0,53,0.00,,,0.00,meteohub,2013-07-25 19:09:00,
2013-07-25 15:14:00,95.2,74.8,29.86,West,270,4.0,10.0,52,0.00,,,0.00,meteohub,2013-07-25 19:14:00,
2013-07-25 15:19:00,94.6,75.4,29.87,West,270,2.0,10.0,54,0.00,,,0.00,meteohub,2013-07-25 19:19:00,
2013-07-25 15:24:00,95.5,75.7,29.86,SW,225,4.0,10.0,53,0.00,,,0.00,meteohub,2013-07-25 19:24:00,
2013-07-25 15:30:00,96.8,74.5,29.86,North,0,4.0,5.0,49,0.00,,,0.00,meteohub,2013-07-25 19:30:00,
2013-07-25 15:35:00,97.2,74.8,29.86,SSW,203,8.0,8.0,49,0.00,,,0.00,meteohub,2013-07-25 19:35:00,
2013-07-25 15:40:00,96.1,75.6,29.86,SW,225,8.0,9.0,52,0.00,,,0.00,meteohub,2013-07-25 19:40:00,
2013-07-25 15:45:00,96.1,73.8,29.86,SW,225,11.0,11.0,49,0.00,,,0.00,meteohub,2013-07-25 19:45:00,
2013-07-25 15:50:00,96.8,74.5,29.86,South,180,6.0,13.0,49,0.00,,,0.00,meteohub,2013-07-25 19:50:00,
2013-07-25 15:55:00,96.4,75.4,29.86,SW,225,7.0,13.0,51,0.00,,,0.00,meteohub,2013-07-25 19:55:00,
2013-07-25 16:00:00,96.4,75.4,29.86,North,0,4.0,10.0,51,0.00,,,0.00,meteohub,2013-07-25 20:00:00,
2013-07-25 16:06:00,96.8,74.5,29.85,North,0,2.0,10.0,49,0.00,,,0.00,meteohub,2013-07-25 20:06:00,
2013-07-25 16:11:00,97.3,75.0,29.86,WNW,293,6.0,8.0,49,0.00,,,0.00,meteohub,2013-07-25 20:11:00,
2013-07-25 16:16:00,96.6,74.8,29.85,NW,315,4.0,8.0,50,0.00,,,0.00,meteohub,2013-07-25 20:16:00,
2013-07-25 16:22:00,96.3,74.7,29.85,SW,225,7.0,8.0,50,0.00,,,0.00,meteohub,2013-07-25 20:22:00,
2013-07-25 16:27:00,95.9,74.8,29.86,NW,315,4.0,8.0,51,0.00,,,0.00,meteohub,2013-07-25 20:27:00,
2013-07-25 16:32:00,95.2,74.1,29.85,SW,225,4.0,8.0,51,0.00,,,0.00,meteohub,2013-07-25 20:32:00,
2013-07-25 16:37:00,96.4,74.1,29.85,NNW,338,8.0,8.0,49,0.00,,,0.00,meteohub,2013-07-25 20:37:00,
2013-07-25 16:42:00,95.4,74.3,29.86,NW,315,4.0,8.0,51,0.00,,,0.00,meteohub,2013-07-25 20:42:00,
2013-07-25 16:47:00,97.2,74.1,29.86,North,0,5.0,8.0,48,0.00,,,0.00,meteohub,2013-07-25 20:47:00,
2013-07-25 16:52:00,97.7,74.1,29.85,East,90,4.0,8.0,47,0.00,,,0.00,meteohub,2013-07-25 20:52:00,
2013-07-25 16:57:00,99.0,73.9,29.85,SW,225,5.0,8.0,45,0.00,,,0.00,meteohub,2013-07-25 20:57:00,
2013-07-25 17:02:00,99.1,74.7,29.86,NW,315,4.0,8.0,46,0.00,,,0.00,meteohub,2013-07-25 21:02:00,
2013-07-25 17:08:00,97.5,74.5,29.86,SW,225,5.0,5.0,48,0.00,,,0.00,meteohub,2013-07-25 21:08:00,
2013-07-25 17:13:00,96.8,75.0,29.86,North,0,7.0,10.0,50,0.00,,,0.00,meteohub,2013-07-25 21:13:00,
2013-07-25 17:19:00,95.9,74.8,29.86,NW,315,5.0,10.0,51,0.00,,,0.00,meteohub,2013-07-25 21:19:00,
2013-07-25 17:24:00,96.3,74.7,29.86,North,0,4.0,10.0,50,0.00,,,0.00,meteohub,2013-07-25 21:24:00,
2013-07-25 17:29:00,94.6,74.3,29.86,NW,315,2.0,10.0,52,0.00,,,0.00,meteohub,2013-07-25 21:29:00,
2013-07-25 17:34:00,94.3,75.6,29.85,West,270,4.0,10.0,55,0.00,,,0.00,meteohub,2013-07-25 21:34:00,
2013-07-25 17:39:00,95.4,76.1,29.85,West,270,4.0,10.0,54,0.00,,,0.00,meteohub,2013-07-25 21:39:00,
2013-07-25 17:44:00,95.5,76.3,29.86,SW,225,4.0,9.0,54,0.00,,,0.00,meteohub,2013-07-25 21:44:00,
2013-07-25 17:49:00,93.7,75.2,29.86,SW,225,2.0,8.0,55,0.00,,,0.00,meteohub,2013-07-25 21:49:00,
2013-07-25 17:54:00,93.6,74.5,29.86,SW,225,4.0,9.0,54,0.00,,,0.00,meteohub,2013-07-25 21:54:00,
2013-07-25 18:00:00,94.5,75.7,29.86,SW,225,6.0,9.0,55,0.00,,,0.00,meteohub,2013-07-25 22:00:00,
2013-07-25 18:05:00,93.0,76.6,29.86,West,270,2.0,9.0,59,0.00,,,0.00,meteohub,2013-07-25 22:05:00,
2013-07-25 18:10:00,93.6,76.6,29.86,West,270,2.0,11.0,58,0.00,,,0.00,meteohub,2013-07-25 22:10:00,
2013-07-25 18:15:00,93.0,76.1,29.86,North,0,2.0,11.0,58,0.00,,,0.00,meteohub,2013-07-25 22:15:00,
2013-07-25 18:20:00,93.0,75.6,29.86,NNE,23,8.0,11.0,57,0.00,,,0.00,meteohub,2013-07-25 22:20:00,
2013-07-25 18:25:00,92.7,75.7,29.86,SW,225,4.0,10.0,58,0.00,,,0.00,meteohub,2013-07-25 22:25:00,
2013-07-25 18:27:00,92.5,75.6,29.86,West,270,4.0,10.0,58,0.00,,,0.00,meteohub,2013-07-25 22:27:00,
2013-07-25 18:32:00,93.6,76.6,29.86,SW,225,6.0,9.0,58,0.00,,,0.00,meteohub,2013-07-25 22:32:00,
2013-07-25 18:37:00,93.6,75.6,29.86,SW,225,7.0,9.0,56,0.00,,,0.00,meteohub,2013-07-25 22:37:00,
2013-07-25 18:42:00,92.7,73.6,29.86,South,180,11.0,11.0,54,0.00,,,0.00,meteohub,2013-07-25 22:42:00,
2013-07-25 18:47:00,92.1,74.1,29.86,West,270,8.0,11.0,56,0.00,,,0.00,meteohub,2013-07-25 22:47:00,
2013-07-25 18:52:00,91.8,74.3,29.87,SW,225,2.0,11.0,57,0.00,,,0.00,meteohub,2013-07-25 22:52:00,
2013-07-25 18:57:00,91.2,74.8,29.86,SW,225,3.0,11.0,59,0.00,,,0.00,meteohub,2013-07-25 22:57:00,
2013-07-25 19:02:00,90.7,74.8,29.86,SW,225,3.0,8.0,60,0.00,,,0.00,meteohub,2013-07-25 23:02:00,
2013-07-25 19:07:00,90.3,75.0,29.86,South,180,4.0,7.0,61,0.00,,,0.00,meteohub,2013-07-25 23:07:00,
2013-07-25 19:13:00,90.0,74.7,29.87,South,180,6.0,9.0,61,0.00,,,0.00,meteohub,2013-07-25 23:13:00,
2013-07-25 19:18:00,89.6,74.3,29.87,SW,225,2.0,9.0,61,0.00,,,0.00,meteohub,2013-07-25 23:18:00,
2013-07-25 19:23:00,89.4,74.7,29.87,SW,225,4.0,9.0,62,0.00,,,0.00,meteohub,2013-07-25 23:23:00,
2013-07-25 19:28:00,89.2,74.5,29.87,West,270,1.0,8.0,62,0.00,,,0.00,meteohub,2013-07-25 23:28:00,
2013-07-25 19:33:00,89.1,74.8,29.87,South,180,4.0,5.0,63,0.00,,,0.00,meteohub,2013-07-25 23:33:00,
2013-07-25 19:39:00,88.9,74.7,29.87,NW,315,3.0,8.0,63,0.00,,,0.00,meteohub,2013-07-25 23:39:00,
2013-07-25 19:44:00,88.7,75.9,29.87,South,180,6.0,8.0,66,0.00,,,0.00,meteohub,2013-07-25 23:44:00,
2013-07-25 19:49:00,88.7,76.3,29.87,West,270,4.0,8.0,67,0.00,,,0.00,meteohub,2013-07-25 23:49:00,
2013-07-25 19:54:00,88.5,77.0,29.87,SW,225,4.0,6.0,69,0.00,,,0.00,meteohub,2013-07-25 23:54:00,
2013-07-25 19:59:00,88.2,77.2,29.87,SW,225,2.0,6.0,70,0.00,,,0.00,meteohub,2013-07-25 23:59:00,
2013-07-25 20:04:00,88.0,77.9,29.87,SW,225,3.0,5.0,72,0.00,,,0.00,meteohub,2013-07-26 00:04:00,
2013-07-25 20:09:00,87.6,78.3,29.87,West,270,5.0,5.0,74,0.00,,,0.00,meteohub,2013-07-26 00:09:00,
2013-07-25 20:15:00,87.6,78.6,29.87,SW,225,4.0,7.0,75,0.00,,,0.00,meteohub,2013-07-26 00:15:00,
2013-07-25 20:20:00,87.3,78.8,29.87,SW,225,3.0,8.0,76,0.00,,,0.00,meteohub,2013-07-26 00:20:00,
2013-07-25 20:25:00,87.1,79.0,29.87,South,180,4.0,8.0,77,0.00,,,0.00,meteohub,2013-07-26 00:25:00,
2013-07-25 20:30:00,86.9,79.2,29.87,West,270,4.0,8.0,78,0.00,,,0.00,meteohub,2013-07-26 00:30:00,
2013-07-25 20:35:00,86.7,79.0,29.87,SSW,203,2.0,6.0,78,0.00,,,0.00,meteohub,2013-07-26 00:35:00,
2013-07-25 20:40:00,86.7,79.3,29.87,SW,225,4.0,6.0,79,0.00,,,0.00,meteohub,2013-07-26 00:40:00,
2013-07-25 20:45:00,86.5,79.2,29.87,West,270,7.0,7.0,79,0.00,,,0.00,meteohub,2013-07-26 00:45:00,
2013-07-25 20:51:00,86.5,79.2,29.87,West,270,5.0,7.0,79,0.00,,,0.00,meteohub,2013-07-26 00:51:00,
2013-07-25 20:56:00,86.4,79.5,29.88,SSW,203,4.0,7.0,80,0.00,,,0.00,meteohub,2013-07-26 00:56:00,
2013-07-25 21:01:00,86.2,79.3,29.87,SW,225,4.0,7.0,80,0.00,,,0.00,meteohub,2013-07-26 01:01:00,
2013-07-25 21:06:00,86.0,79.2,29.88,West,270,4.0,7.0,80,0.00,,,0.00,meteohub,2013-07-26 01:06:00,
2013-07-25 21:12:00,86.2,79.3,29.88,SW,225,3.0,7.0,80,0.00,,,0.00,meteohub,2013-07-26 01:12:00,
2013-07-25 21:17:00,86.0,79.5,29.88,SW,225,5.0,7.0,81,0.00,,,0.00,meteohub,2013-07-26 01:17:00,
2013-07-25 21:22:00,85.8,79.3,29.88,SW,225,4.0,7.0,81,0.00,,,0.00,meteohub,2013-07-26 01:22:00,
2013-07-25 21:27:00,85.6,79.5,29.88,South,180,2.0,6.0,82,0.00,,,0.00,meteohub,2013-07-26 01:27:00,
2013-07-25 21:32:00,85.5,79.3,29.88,SW,225,4.0,6.0,82,0.00,,,0.00,meteohub,2013-07-26 01:32:00,
2013-07-25 21:37:00,85.5,79.3,29.89,South,180,2.0,5.0,82,0.00,,,0.00,meteohub,2013-07-26 01:37:00,
2013-07-25 21:42:00,85.3,79.5,29.88,SW,225,2.0,4.0,83,0.00,,,0.00,meteohub,2013-07-26 01:42:00,
2013-07-25 21:47:00,85.3,79.5,29.89,SW,225,4.0,4.0,83,0.00,,,0.00,meteohub,2013-07-26 01:47:00,
2013-07-25 21:52:00,85.3,79.5,29.88,South,180,4.0,5.0,83,0.00,,,0.00,meteohub,2013-07-26 01:52:00,
2013-07-25 21:57:00,85.1,79.7,29.89,South,180,4.0,5.0,84,0.00,,,0.00,meteohub,2013-07-26 01:57:00,
2013-07-25 22:02:00,84.9,79.5,29.88,South,180,2.0,5.0,84,0.00,,,0.00,meteohub,2013-07-26 02:02:00,
2013-07-25 22:07:00,84.7,79.3,29.90,SW,225,1.0,4.0,84,0.00,,,0.00,meteohub,2013-07-26 02:07:00,
2013-07-25 22:12:00,84.6,79.2,29.90,SW,225,0.0,4.0,84,0.00,,,0.00,meteohub,2013-07-26 02:12:00,
2013-07-25 22:17:00,84.4,79.3,29.89,South,180,3.0,3.0,85,0.00,,,0.00,meteohub,2013-07-26 02:17:00,
2013-07-25 22:22:00,84.6,79.2,29.90,WSW,248,3.0,4.0,84,0.00,,,0.00,meteohub,2013-07-26 02:22:00,
2013-07-25 22:27:00,84.6,78.8,29.90,SW,225,4.0,4.0,83,0.00,,,0.00,meteohub,2013-07-26 02:27:00,
2013-07-25 22:32:00,84.6,78.4,29.90,SW,225,3.0,4.0,82,0.00,,,0.00,meteohub,2013-07-26 02:32:00,
2013-07-25 22:37:00,84.7,78.6,29.90,South,180,2.0,4.0,82,0.00,,,0.00,meteohub,2013-07-26 02:37:00,
2013-07-25 22:42:00,84.6,78.4,29.90,SW,225,4.0,4.0,82,0.00,,,0.00,meteohub,2013-07-26 02:42:00,
2013-07-25 22:47:00,84.6,78.4,29.90,SW,225,1.0,6.0,82,0.00,,,0.00,meteohub,2013-07-26 02:47:00,
2013-07-25 22:52:00,84.6,78.4,29.90,SW,225,8.0,8.0,82,0.00,,,0.00,meteohub,2013-07-26 02:52:00,
2013-07-25 22:57:00,84.4,78.6,29.90,WSW,248,4.0,11.0,83,0.00,,,0.00,meteohub,2013-07-26 02:57:00,
2013-07-25 23:02:00,84.2,78.4,29.90,NW,315,4.0,11.0,83,0.00,,,0.00,meteohub,2013-07-26 03:02:00,
2013-07-25 23:07:00,84.0,78.6,29.90,SW,225,2.0,11.0,84,0.00,,,0.00,meteohub,2013-07-26 03:07:00,
2013-07-25 23:12:00,83.8,78.8,29.90,SW,225,4.0,6.0,85,0.00,,,0.00,meteohub,2013-07-26 03:12:00,
2013-07-25 23:17:00,83.7,78.6,29.91,SW,225,3.0,8.0,85,0.00,,,0.00,meteohub,2013-07-26 03:17:00,
2013-07-25 23:22:00,83.5,78.8,29.90,SW,225,6.0,8.0,86,0.00,,,0.00,meteohub,2013-07-26 03:22:00,
2013-07-25 23:27:00,83.3,79.0,29.91,SW,225,4.0,8.0,87,0.00,,,0.00,meteohub,2013-07-26 03:27:00,
2013-07-25 23:32:00,83.3,79.0,29.90,West,270,2.0,6.0,87,0.00,,,0.00,meteohub,2013-07-26 03:32:00,
2013-07-25 23:37:00,83.1,79.2,29.90,South,180,4.0,7.0,88,0.00,,,0.00,meteohub,2013-07-26 03:37:00,
2013-07-25 23:42:00,82.9,79.0,29.90,SW,225,2.0,7.0,88,0.00,,,0.00,meteohub,2013-07-26 03:42:00,
2013-07-25 23:47:00,82.9,79.0,29.91,SW,225,4.0,4.0,88,0.00,,,0.00,meteohub,2013-07-26 03:47:00,
2013-07-25 23:52:00,82.9,79.0,29.91,West,270,7.0,7.0,88,0.00,,,0.00,meteohub,2013-07-26 03:52:00,
2013-07-25 23:57:00,82.8,78.8,29.91,SW,225,2.0,7.0,88,0.00,,,0.00,meteohub,2013-07-26 03:57:00,